createdAt,value
2019-02-17T00:00:59.812Z,28.03
2019-02-17T00:05:20.386Z,27.70
2019-02-17T00:09:33.235Z,27.93
2019-02-17T00:13:45.806Z,23.20
2019-02-17T00:17:58.629Z,23.13
2019-02-17T00:22:12.264Z,27.43
2019-02-17T00:26:24.727Z,27.73
2019-02-17T00:30:37.113Z,23.50
2019-02-17T00:34:50.016Z,28.73
2019-02-17T00:39:02.585Z,28.27
2019-02-17T00:43:15.002Z,26.00
2019-02-17T00:47:27.786Z,28.43
2019-02-17T00:51:40.235Z,28.00
2019-02-17T00:55:52.649Z,30.07
2019-02-17T01:00:05.652Z,25.73
2019-02-17T01:04:18.173Z,28.53
2019-02-17T01:08:30.997Z,28.43
2019-02-17T01:12:43.706Z,22.83
2019-02-17T01:16:56.545Z,24.83
2019-02-17T01:21:09.001Z,23.87
2019-02-17T01:25:21.303Z,24.73
2019-02-17T01:29:34.293Z,25.17
2019-02-17T01:33:46.827Z,23.37
2019-02-17T01:37:59.065Z,25.07
2019-02-17T01:42:12.017Z,27.13
2019-02-17T01:46:24.413Z,24.70
2019-02-17T01:50:36.715Z,23.30
2019-02-17T01:54:49.630Z,21.83
2019-02-17T01:59:02.165Z,20.37
2019-02-17T02:03:14.587Z,22.53
2019-02-17T02:07:27.060Z,20.30
2019-02-17T02:11:39.788Z,24.77
2019-02-17T02:15:52.290Z,25.00
2019-02-17T02:20:05.129Z,25.47
2019-02-17T02:24:17.582Z,22.37
2019-02-17T02:28:29.892Z,32.80
2019-02-17T02:32:42.220Z,25.33
2019-02-17T02:36:55.289Z,23.10
2019-02-17T02:41:07.757Z,24.53
2019-02-17T02:45:20.643Z,24.27
2019-02-17T02:49:33.210Z,24.63
2019-02-17T02:53:45.609Z,28.10
2019-02-17T02:57:58.504Z,22.57
2019-02-17T03:02:11.060Z,20.93
2019-02-17T03:06:54.387Z,26.00
2019-02-17T03:11:07.142Z,24.23
2019-02-17T03:15:19.709Z,24.13
2019-02-17T03:19:32.683Z,22.60
2019-02-17T03:23:45.088Z,25.60
2019-02-17T03:27:57.506Z,29.43
2019-02-17T03:32:11.054Z,23.90
2019-02-17T03:36:23.465Z,24.70
2019-02-17T03:40:37.065Z,25.50
2019-02-17T03:44:49.795Z,25.10
2019-02-17T03:49:02.245Z,22.30
2019-02-17T03:53:14.552Z,25.03
2019-02-17T03:57:27.453Z,22.83
2019-02-17T04:01:41.096Z,32.80
2019-02-17T04:05:53.556Z,21.10
2019-02-17T04:10:06.535Z,24.77
2019-02-17T04:14:19.262Z,21.47
2019-02-17T04:18:32.081Z,21.67
2019-02-17T04:22:44.653Z,21.13
2019-02-17T04:26:56.950Z,25.60
2019-02-17T04:31:10.508Z,19.23
2019-02-17T04:35:22.904Z,24.07
2019-02-17T04:39:35.687Z,20.90
2019-02-17T04:43:48.227Z,25.10
2019-02-17T04:48:00.469Z,19.80
2019-02-17T04:52:13.904Z,22.33
2019-02-17T04:56:26.221Z,19.67
2019-02-17T05:00:40.480Z,24.37
2019-02-17T05:04:53.106Z,23.83
2019-02-17T05:09:06.280Z,24.10
2019-02-17T05:13:18.857Z,18.77
2019-02-17T05:17:31.804Z,18.80
2019-02-17T05:21:44.298Z,16.33
2019-02-17T05:25:56.721Z,20.37
2019-02-17T05:30:09.918Z,14.43
2019-02-17T05:34:22.257Z,18.80
2019-02-17T05:38:34.667Z,19.90
2019-02-17T05:42:47.465Z,20.60
2019-02-17T05:47:00.105Z,21.10
2019-02-17T05:51:13.013Z,24.30
2019-02-17T05:55:25.573Z,22.87
2019-02-17T05:59:38.552Z,13.57
2019-02-17T06:03:51.112Z,20.83
2019-02-17T06:08:03.427Z,18.30
2019-02-17T06:12:18.458Z,22.73
2019-02-17T06:16:30.209Z,22.33
2019-02-17T06:20:42.692Z,20.17
2019-02-17T06:24:55.503Z,24.37
2019-02-17T06:29:07.967Z,20.87
2019-02-17T06:33:20.399Z,22.93
2019-02-17T06:37:33.265Z,22.47
2019-02-17T06:41:45.725Z,25.43
2019-02-17T06:45:58.131Z,19.57
2019-02-17T06:50:11.785Z,21.87
2019-02-17T06:54:24.672Z,24.23
2019-02-17T06:58:37.128Z,26.53
2019-02-17T07:02:49.441Z,28.17
2019-02-17T07:07:04.556Z,26.23
2019-02-17T07:11:17.508Z,27.37
2019-02-17T07:15:30.176Z,26.20
2019-02-17T07:19:43.153Z,23.03
2019-02-17T07:23:55.685Z,29.20
2019-02-17T07:28:08.028Z,24.53
2019-02-17T07:32:20.817Z,29.60
2019-02-17T07:36:33.174Z,27.83
2019-02-17T07:40:46.151Z,26.33
2019-02-17T07:44:58.726Z,30.70
2019-02-17T07:49:11.128Z,24.93
2019-02-17T07:53:24.112Z,29.63
2019-02-17T07:57:36.586Z,26.97
2019-02-17T08:01:49.564Z,22.80
2019-02-17T08:06:02.122Z,23.93
2019-02-17T08:10:14.446Z,27.67
2019-02-17T08:14:26.954Z,28.37
2019-02-17T08:18:39.641Z,25.87
2019-02-17T08:22:52.101Z,28.97
2019-02-17T08:27:04.714Z,26.33
2019-02-17T08:31:17.337Z,20.00
2019-02-17T08:35:29.748Z,26.23
2019-02-17T08:39:42.641Z,26.13
2019-02-17T08:43:55.298Z,24.10
2019-02-17T08:48:07.616Z,25.50
2019-02-17T08:52:20.601Z,26.93
2019-02-17T08:56:33.396Z,25.90
2019-02-17T09:00:46.160Z,24.97
2019-02-17T09:04:58.717Z,29.83
2019-02-17T09:09:11.693Z,26.00
2019-02-17T09:13:24.364Z,30.47
2019-02-17T09:17:36.772Z,25.10
2019-02-17T09:21:49.557Z,30.17
2019-02-17T09:26:02.025Z,34.37
2019-02-17T09:30:16.210Z,33.77
2019-02-17T09:34:28.947Z,30.03
2019-02-17T09:38:41.315Z,34.53
2019-02-17T09:42:53.717Z,33.33
2019-02-17T09:47:06.513Z,33.60
2019-02-17T09:51:19.092Z,26.20
2019-02-17T09:55:31.486Z,30.37
2019-02-17T09:59:44.333Z,32.50
2019-02-17T10:03:56.849Z,35.97
2019-02-17T10:08:09.232Z,32.13
2019-02-17T10:12:22.032Z,34.33
2019-02-17T10:16:34.597Z,40.33
2019-02-17T10:20:47.577Z,27.40
2019-02-17T10:25:00.036Z,29.80
2019-02-17T10:29:12.404Z,31.97
2019-02-17T10:33:24.657Z,27.43
2019-02-17T10:37:37.442Z,37.10
2019-02-17T10:41:51.158Z,27.70
2019-02-17T10:46:05.926Z,26.53
2019-02-17T10:50:18.106Z,31.97
2019-02-17T10:54:30.759Z,33.77
2019-02-17T10:58:43.360Z,22.33
2019-02-17T11:02:56.109Z,28.87
2019-02-17T11:07:08.622Z,25.30
2019-02-17T11:11:21.593Z,26.47
2019-02-17T11:15:34.366Z,21.00
2019-02-17T11:19:47.455Z,31.40
2019-02-17T11:24:00.079Z,31.17
2019-02-17T11:28:12.443Z,28.47
2019-02-17T11:32:26.817Z,23.63
2019-02-17T11:36:39.326Z,27.17
2019-02-17T11:40:52.294Z,20.80
2019-02-17T11:45:05.028Z,32.17
2019-02-17T11:49:18.052Z,33.80
2019-02-17T11:53:30.618Z,26.00
2019-02-17T11:57:43.035Z,29.50
2019-02-17T12:01:56.150Z,28.13
2019-02-17T12:06:08.577Z,29.73
2019-02-17T12:10:21.461Z,29.33
2019-02-17T12:14:37.303Z,31.63
2019-02-17T12:18:50.286Z,32.30
2019-02-17T12:23:07.662Z,33.03
2019-02-17T12:27:25.616Z,30.03
2019-02-17T12:31:39.829Z,28.93
2019-02-17T12:35:52.656Z,33.20
2019-02-17T12:40:07.210Z,29.50
2019-02-17T12:44:19.978Z,28.77
2019-02-17T12:48:32.402Z,32.23
2019-02-17T12:52:47.754Z,27.87
2019-02-17T12:56:59.431Z,30.67
2019-02-17T13:01:13.589Z,33.10
2019-02-17T13:05:26.529Z,32.67
2019-02-17T13:09:39.546Z,29.37
2019-02-17T13:13:52.210Z,34.60
2019-02-17T13:18:04.735Z,27.03
2019-02-17T13:22:18.739Z,31.13
2019-02-17T13:26:31.375Z,27.73
2019-02-17T13:30:43.797Z,33.07
2019-02-17T13:34:56.208Z,33.40
2019-02-17T13:39:09.644Z,36.43
2019-02-17T13:43:22.433Z,35.67
2019-02-17T13:47:34.996Z,35.47
2019-02-17T13:51:47.507Z,29.87
2019-02-17T13:56:00.384Z,38.47
2019-02-17T14:00:16.167Z,34.20
2019-02-17T14:04:30.331Z,26.20
2019-02-17T14:08:43.439Z,26.70
2019-02-17T14:12:57.459Z,34.90
2019-02-17T14:17:10.187Z,25.83
2019-02-17T14:21:23.181Z,36.20
2019-02-17T14:25:35.748Z,33.57
2019-02-17T14:29:48.728Z,31.73
2019-02-17T14:34:01.288Z,29.37
2019-02-17T14:38:13.664Z,39.53
2019-02-17T14:42:27.794Z,23.63
2019-02-17T14:46:40.685Z,23.63
2019-02-17T14:50:53.777Z,25.43
2019-02-17T14:55:06.341Z,28.43
2019-02-17T14:59:19.792Z,27.40
2019-02-17T15:03:32.389Z,30.77
2019-02-17T15:07:45.084Z,28.57
2019-02-17T15:11:57.596Z,29.37
2019-02-17T15:16:09.844Z,32.73
2019-02-17T15:20:22.736Z,23.93
2019-02-17T15:24:35.085Z,28.93
2019-02-17T15:28:50.972Z,22.17
2019-02-17T15:33:03.930Z,27.93
2019-02-17T15:37:15.570Z,27.13
2019-02-17T15:41:28.100Z,25.90
2019-02-17T15:45:40.815Z,14.53
2019-02-17T15:49:53.365Z,19.80
2019-02-17T15:54:05.953Z,19.93
2019-02-17T15:58:18.666Z,19.47
2019-02-17T16:02:31.132Z,20.57
2019-02-17T16:06:43.541Z,18.20
2019-02-17T16:10:56.329Z,19.20
2019-02-17T16:15:10.588Z,15.33
2019-02-17T16:19:23.640Z,15.17
2019-02-17T16:23:35.971Z,13.70
2019-02-17T16:27:48.275Z,20.20
2019-02-17T16:32:01.172Z,21.53
2019-02-17T16:36:13.627Z,20.87
2019-02-17T16:40:26.617Z,19.13
2019-02-17T16:44:39.353Z,18.83
2019-02-17T16:48:53.820Z,23.23
2019-02-17T16:53:06.464Z,21.90
2019-02-17T16:57:18.769Z,20.47
2019-02-17T17:01:32.801Z,21.90
2019-02-17T17:05:45.549Z,24.30
2019-02-17T17:09:57.864Z,16.63
2019-02-17T17:14:10.176Z,19.30
2019-02-17T17:18:23.132Z,17.60
2019-02-17T17:22:35.745Z,19.77
2019-02-17T17:26:48.608Z,23.37
2019-02-17T17:31:01.072Z,16.43
2019-02-17T17:35:13.480Z,18.50
2019-02-17T17:39:26.931Z,20.03
2019-02-17T17:43:39.328Z,18.67
2019-02-17T17:47:52.320Z,21.20
2019-02-17T17:52:04.677Z,16.30
2019-02-17T17:56:17.094Z,16.03
2019-02-17T18:00:31.003Z,12.73
2019-02-17T18:04:43.588Z,14.00
2019-02-17T18:08:55.975Z,19.13
2019-02-17T18:13:08.396Z,13.33
2019-02-17T18:17:22.966Z,17.63
2019-02-17T18:21:35.716Z,14.47
2019-02-17T18:25:48.102Z,14.90
2019-02-17T18:30:00.881Z,13.33
2019-02-17T18:34:13.335Z,14.23
2019-02-17T18:38:25.753Z,13.20
2019-02-17T18:42:38.537Z,11.03
2019-02-17T18:46:51.004Z,15.77
2019-02-17T18:51:04.425Z,15.07
2019-02-17T18:55:16.862Z,15.77
2019-02-17T18:59:29.836Z,18.80
2019-02-17T19:03:42.253Z,13.87
2019-02-17T19:07:54.601Z,16.20
2019-02-17T19:12:08.784Z,12.73
2019-02-17T19:16:21.493Z,13.90
2019-02-17T19:20:34.225Z,16.57
2019-02-17T19:24:47.095Z,10.60
2019-02-17T19:28:59.551Z,13.93
2019-02-17T19:33:11.872Z,12.10
2019-02-17T19:37:24.756Z,13.10
2019-02-17T19:41:37.211Z,11.33
2019-02-17T19:45:50.496Z,10.97
2019-02-17T19:50:03.056Z,16.10
2019-02-17T19:54:16.015Z,18.50
2019-02-17T19:58:28.614Z,15.50
2019-02-17T20:02:52.300Z,17.53
2019-02-17T20:07:06.573Z,18.47
2019-02-17T20:11:21.325Z,16.17
2019-02-17T20:15:34.458Z,10.83
2019-02-17T20:19:47.235Z,11.63
2019-02-17T20:23:59.761Z,11.07
2019-02-17T20:28:12.084Z,13.10
2019-02-17T20:32:24.796Z,10.73
2019-02-17T20:36:37.251Z,17.77
2019-02-17T20:40:50.136Z,12.90
2019-02-17T20:45:02.592Z,17.80
2019-02-17T20:49:14.908Z,11.73
2019-02-17T20:53:27.317Z,13.97
2019-02-17T20:57:40.564Z,10.37
2019-02-17T21:01:52.879Z,14.90
2019-02-17T21:06:12.403Z,10.37
2019-02-17T21:10:19.853Z,16.27
2019-02-17T21:14:32.160Z,11.60
2019-02-17T21:18:44.477Z,11.37
2019-02-17T21:22:57.519Z,16.10
2019-02-17T21:27:09.985Z,13.17
2019-02-17T21:31:22.778Z,12.70
2019-02-17T21:35:35.481Z,19.63
2019-02-17T21:39:52.698Z,15.20
2019-02-17T21:44:07.993Z,16.27
2019-02-17T21:48:22.893Z,11.47
2019-02-17T21:52:36.573Z,15.37
2019-02-17T21:56:49.293Z,9.20
2019-02-17T22:01:03.244Z,9.80
2019-02-17T22:05:17.332Z,15.00
2019-02-17T22:09:30.666Z,14.27
2019-02-17T22:13:44.209Z,14.93
2019-02-17T22:17:56.516Z,11.37
2019-02-17T22:22:09.424Z,12.80
2019-02-17T22:26:21.977Z,10.50
2019-02-17T22:30:36.972Z,11.93
2019-02-17T22:34:49.426Z,13.13
2019-02-17T22:39:02.244Z,15.50
2019-02-17T22:43:14.778Z,16.30
2019-02-17T22:47:27.117Z,22.17
2019-02-17T22:51:39.907Z,14.77
2019-02-17T22:55:52.466Z,12.90
2019-02-17T23:00:07.053Z,11.10
2019-02-17T23:04:19.716Z,14.33
2019-02-17T23:08:31.956Z,14.43
2019-02-17T23:12:44.751Z,17.90
2019-02-17T23:16:57.203Z,17.87
2019-02-17T23:21:09.614Z,12.80
2019-02-17T23:25:22.468Z,10.47
2019-02-17T23:29:36.148Z,19.80
2019-02-17T23:33:48.499Z,19.03
2019-02-17T23:38:00.886Z,17.30
2019-02-17T23:42:13.708Z,16.90
2019-02-17T23:46:26.159Z,20.93
2019-02-17T23:50:38.472Z,12.63
2019-02-17T23:54:51.364Z,21.67
2019-02-17T23:59:05.355Z,17.47
